Sunnyslope, Washington
Current Conditions -  °F | °C
As of 2:15 AM on Sunday 23 Nov 2014 (Local Time) from KPWT Reporting Station
Overcast Overcast  
Wind Chill: 37°   Ceiling: 1200
Heat Index: 45°   Visibility: 7mi
Dew Point: 45°   Wind: 17mph
Humidity: 100%   Direction: 190°S
Pressure: 30.16"   Gusts: 24mph
Location:  47.5378°N, 122.589°W
Report Text: KPWT 231015Z AUTO 19015G21KT 7SM SCT004 BKN012 OVC026 07/07 A3016 RMK AO1 P0013
Loading
Personal Weather Stations






























Interactive Weather Map New forecast layout! Learn more

10-Day Weather Forecast

Advertisements
Track Severe Weather on mobile